EST,Max TemperatureF,Mean TemperatureF,Min TemperatureF,Max Dew PointF,MeanDew PointF,Min DewpointF,Max Humidity, Mean Humidity, Min Humidity, Max Sea Level PressureIn, Mean Sea Level PressureIn, Min Sea Level PressureIn, Max VisibilityMiles, Mean VisibilityMiles, Min VisibilityMiles, Max Wind SpeedMPH, Mean Wind SpeedMPH, Max Gust SpeedMPH,PrecipitationIn, CloudCover, Events, WindDirDegrees
2012-2-1,17,15,13,15,13,11,93,91,90,30.08,29.92,29.82,,,,7,4,,0.53,,,-1
2012-2-2,18,6,-9,12,7,-14,92,86,74,30.30,30.18,30.01,,,,6,1,,0.11,,,-1
2012-2-3,24,6,-13,14,1,-18,89,79,54,30.42,30.32,30.19,,,,5,1,13,0.11,,,-1
2012-2-4,22,12,-7,15,10,-10,92,83,64,30.20,30.16,30.14,,,,7,2,15,0.48,,,-1
2012-2-5,23,0,-23,14,-5,-29,88,71,44,30.22,30.09,29.82,,,,8,2,20,0.22,,,210
2012-2-6,32,26,19,26,23,15,89,81,72,29.79,29.71,29.65,,,,9,7,22,0.29,,,220
2012-2-7,30,13,-8,24,7,-11,86,67,47,30.22,30.00,29.75,,,,7,4,16,0.02,,,240
2012-2-8,25,2,-20,5,-5,-25,84,61,38,30.26,30.13,29.98,,,,16,3,25,0.03,,,214
2012-2-9,30,14,-2,17,10,-6,94,79,62,30.02,29.99,29.94,,,,9,3,18,0.01,,,215
2012-2-10,37,14,-8,20,9,-13,91,74,44,30.08,29.98,29.86,,,,15,2,23,0.02,,,217
2012-2-11,22,10,0,18,6,-7,93,78,64,29.92,29.84,29.74,,,,6,1,14,0.06,,,-1
2012-2-12,4,-3,-10,-4,-10,-15,88,73,52,29.70,29.66,29.62,,,,9,2,18,0.05,,,260
2012-2-13,7,-4,-14,-7,-18,-25,82,56,23,29.97,29.80,29.68,,,,12,2,23,0.07,,,260
2012-2-14,33,8,-17,18,2,-23,78,66,47,30.11,30.06,29.99,,,,13,3,26,0.04,,,197
2012-2-15,40,27,15,26,20,12,90,72,50,30.23,30.17,30.08,,,,5,0,,0.01,,,-1
2012-2-16,36,31,27,31,28,25,99,87,73,30.25,30.18,30.01,,,,7,1,,0.06,,,-1
2012-2-17,37,32,29,32,28,24,100,83,75,29.99,29.83,29.75,,,,12,5,20,0.10,,,188
2012-2-18,31,28,21,25,20,15,90,72,58,29.83,29.75,29.70,,,,8,3,17,0.01,,,235
2012-2-19,28,19,5,14,8,2,86,65,39,30.02,29.96,29.85,,,,8,5,20,0.01,,,254
2012-2-20,25,8,-9,8,1,-14,92,71,42,30.27,30.14,30.02,,,,8,1,18,0.05,,,270
2012-2-21,33,11,-10,18,5,-15,90,68,49,30.36,30.15,29.81,,,,9,2,18,0.01,,,177
2012-2-22,36,30,25,36,26,19,100,86,73,29.78,29.58,29.47,,,,12,5,15,0.04,,,171
2012-2-23,36,33,31,33,32,31,93,90,87,29.64,29.46,29.37,,,,7,2,14,0.19,,,-1
2012-2-24,41,31,25,25,23,21,89,66,54,29.79,29.66,29.38,,,,12,3,23,0.19,,,85
2012-2-25,31,30,28,,,,,,,29.44,29.16,29.02,,,,9,5,20,0.64,,,15
2012-2-26,25,12,0,17,7,-2,93,77,62,30.40,30.04,29.51,,,,12,6,28,0.02,,,244
2012-2-27,15,1,-13,12,2,-20,91,82,68,30.51,30.33,30.06,,,,9,2,,0.19,,,70
2012-2-28,21,14,7,13,10,5,90,83,68,30.37,30.27,30.06,,,,8,2,16,0.06,,,330
2012-2-29,25,7,-9,11,1,-13,92,77,49,30.40,30.33,30.26,,,,6,1,,0.11,,,-1